Welcome to Des Moines Iowa Weather. I am an independent private personal weather station on the Northwest Side of Des Moines, Iowa. Just East of Windsor Heights and just West of Glendale . This site is also mobile friendly.

There are no active watches, warnings or advisories


Visit our other weather sites:

Historical Data

Weather Station Setup



Weather Underground History page Text

Daily Summary for July 3, 2017 Units:  English    Metric   Both
« Previous Day
Next Day »
Daily Weekly Monthly Yearly Custom
  High: Low: Average:
Temperature: 89.1 °F 67.7 °F 77.8 °F
Dew Point: 75.0 °F 65.0 °F 70.2 °F
Humidity: 94 % 60 % 78 %
Wind Speed: 3.0 mph 0.0 mph 0.1 mph
Wind Gust: 8.0 mph - -
Wind:- - East
Pressure: 29.96 in 29.88 in -
Precipitation: 0.00 in    
Historical Graphs
 
 
Tabular Data for July 3, 2017
Time Temperature Dew Point Pressure Wind Wind Speed Wind Gust Humidity Rainfall Rate (Hourly)
00:00 71.5 °F 67.0 °F 29.94 in Calm     85 % 0.00 in
00:15 71.3 °F 67.0 °F 29.93 in Calm     85 % 0.00 in
00:30 71.1 °F 67.0 °F 29.94 in Calm     86 % 0.00 in
00:45 71.1 °F 67.0 °F 29.94 in Calm     86 % 0.00 in
01:00 71.1 °F 67.0 °F 29.94 in Calm     87 % 0.00 in
01:15 71.0 °F 67.0 °F 29.94 in Calm     86 % 0.00 in
01:31 70.8 °F 67.0 °F 29.95 in Calm     87 % 0.00 in
01:45 70.8 °F 67.0 °F 29.94 in Calm     87 % 0.00 in
02:00 70.6 °F 67.0 °F 29.94 in Calm     87 % 0.00 in
02:15 70.4 °F 66.0 °F 29.94 in Calm     87 % 0.00 in
02:30 70.1 °F 66.0 °F 29.94 in Calm     87 % 0.00 in
02:45 70.0 °F 66.0 °F 29.94 in Calm     88 % 0.00 in
03:00 69.8 °F 67.0 °F 29.94 in Calm     89 % 0.00 in
03:15 69.8 °F 67.0 °F 29.94 in Calm     90 % 0.00 in
03:30 69.8 °F 67.0 °F 29.93 in Calm     90 % 0.00 in
03:45 69.8 °F 67.0 °F 29.93 in Calm     90 % 0.00 in
04:00 69.7 °F 67.0 °F 29.92 in Calm     90 % 0.00 in
04:15 69.5 °F 67.0 °F 29.92 in East 3.0 mph 4.0 mph 90 % 0.00 in
04:30 69.4 °F 67.0 °F 29.92 in Calm   3.0 mph 91 % 0.00 in
04:45 69.2 °F 67.0 °F 29.92 in Calm     91 % 0.00 in
05:00 68.8 °F 66.0 °F 29.91 in Calm     90 % 0.00 in
05:15 68.5 °F 66.0 °F 29.92 in Calm     91 % 0.00 in
05:30 68.2 °F 66.0 °F 29.92 in Calm     91 % 0.00 in
05:45 67.9 °F 65.0 °F 29.92 in Calm     91 % 0.00 in
06:00 67.7 °F 65.0 °F 29.93 in Calm     91 % 0.00 in
06:15 67.9 °F 66.0 °F 29.93 in Calm     92 % 0.00 in
06:30 68.1 °F 66.0 °F 29.93 in Calm     93 % 0.00 in
06:45 68.3 °F 66.0 °F 29.94 in Calm     93 % 0.00 in
07:00 68.9 °F 67.0 °F 29.95 in Calm     94 % 0.00 in
07:15 69.3 °F 68.0 °F 29.95 in Calm     94 % 0.00 in
07:30 69.8 °F 68.0 °F 29.95 in Calm     94 % 0.00 in
07:46 70.6 °F 69.0 °F 29.96 in Calm     93 % 0.00 in
08:01 71.6 °F 70.0 °F 29.96 in Calm   2.0 mph 93 % 0.00 in
08:16 72.4 °F 70.0 °F 29.95 in Calm   3.0 mph 91 % 0.00 in
08:31 73.1 °F 70.0 °F 29.95 in Calm   2.0 mph 89 % 0.00 in
08:46 74.0 °F 70.0 °F 29.95 in Calm   3.0 mph 87 % 0.00 in
09:01 74.9 °F 71.0 °F 29.95 in Calm   2.0 mph 86 % 0.00 in
09:16 75.9 °F 71.0 °F 29.95 in Calm   2.0 mph 85 % 0.00 in
09:31 77.1 °F 72.0 °F 29.95 in Calm   2.0 mph 83 % 0.00 in
09:46 78.5 °F 72.0 °F 29.95 in Calm   2.0 mph 81 % 0.00 in
10:01 79.7 °F 72.0 °F 29.94 in Calm   2.0 mph 78 % 0.00 in
10:16 80.7 °F 73.0 °F 29.94 in Calm   3.0 mph 76 % 0.00 in
10:31 81.9 °F 72.0 °F 29.94 in Calm   3.0 mph 73 % 0.00 in
10:46 83.2 °F 73.0 °F 29.94 in Calm   4.0 mph 72 % 0.00 in
11:01 85.0 °F 74.0 °F 29.94 in Calm   3.0 mph 69 % 0.00 in
11:17 86.3 °F 74.0 °F 29.94 in Calm   4.0 mph 66 % 0.00 in
11:31 85.7 °F 73.0 °F 29.94 in Calm   5.0 mph 65 % 0.00 in
11:48 84.7 °F 73.0 °F 29.94 in Calm   1.0 mph 67 % 0.00 in
12:01 85.0 °F 73.0 °F 29.94 in Calm   2.0 mph 68 % 0.00 in
12:16 85.0 °F 72.0 °F 29.93 in Calm   2.0 mph 65 % 0.00 in
12:31 85.7 °F 74.0 °F 29.93 in Calm   3.0 mph 69 % 0.00 in
12:47 86.8 °F 74.0 °F 29.93 in NE 2.0 mph 2.0 mph 65 % 0.00 in
13:02 86.8 °F 72.0 °F 29.93 in Calm   1.0 mph 62 % 0.00 in
13:17 86.6 °F 73.0 °F 29.92 in Calm   2.0 mph 64 % 0.00 in
13:32 85.9 °F 74.0 °F 29.93 in Calm     67 % 0.00 in
13:47 83.1 °F 69.0 °F 29.93 in Calm   8.0 mph 63 % 0.00 in
14:02 82.7 °F 73.0 °F 29.92 in Calm   2.0 mph 72 % 0.00 in
14:17 84.8 °F 71.0 °F 29.92 in Calm   6.0 mph 64 % 0.00 in
14:32 85.0 °F 73.0 °F 29.91 in Calm   3.0 mph 67 % 0.00 in
14:47 84.7 °F 74.0 °F 29.91 in Calm   2.0 mph 71 % 0.00 in
15:02 85.4 °F 73.0 °F 29.90 in Calm   3.0 mph 66 % 0.00 in
15:17 86.1 °F 73.0 °F 29.90 in ENE 2.0 mph 3.0 mph 66 % 0.00 in
15:32 86.5 °F 73.0 °F 29.90 in Calm   3.0 mph 65 % 0.00 in
15:47 86.8 °F 73.0 °F 29.91 in Calm   5.0 mph 64 % 0.00 in
16:02 87.5 °F 74.0 °F 29.90 in Calm   5.0 mph 64 % 0.00 in
16:17 87.4 °F 74.0 °F 29.90 in Calm   1.0 mph 64 % 0.00 in
16:32 88.4 °F 73.0 °F 29.89 in Calm   4.0 mph 60 % 0.00 in
16:47 88.6 °F 74.0 °F 29.89 in Calm   8.0 mph 63 % 0.00 in
17:02 89.1 °F 75.0 °F 29.89 in Calm   2.0 mph 64 % 0.00 in
17:17 88.7 °F 74.0 °F 29.90 in SSE 1.0 mph 2.0 mph 63 % 0.00 in
17:32 87.6 °F 72.0 °F 29.90 in Calm   2.0 mph 61 % 0.00 in
17:47 86.3 °F 71.0 °F 29.90 in Calm     61 % 0.00 in
18:02 85.2 °F 71.0 °F 29.89 in Calm     62 % 0.00 in
18:17 84.2 °F 71.0 °F 29.89 in Calm   1.0 mph 64 % 0.00 in
18:32 83.6 °F 70.0 °F 29.89 in Calm     64 % 0.00 in
18:48 83.1 °F 71.0 °F 29.89 in Calm     68 % 0.00 in
19:02 82.7 °F 71.0 °F 29.89 in Calm     68 % 0.00 in
19:17 82.4 °F 72.0 °F 29.88 in Calm     70 % 0.00 in
19:32 82.1 °F 72.0 °F 29.88 in Calm     72 % 0.00 in
19:47 81.7 °F 72.0 °F 29.88 in Calm     72 % 0.00 in
20:02 81.4 °F 72.0 °F 29.89 in Calm     73 % 0.00 in
20:17 81.0 °F 72.0 °F 29.90 in Calm     74 % 0.00 in
20:32 80.4 °F 72.0 °F 29.90 in Calm     75 % 0.00 in
20:47 79.9 °F 71.0 °F 29.90 in Calm     75 % 0.00 in
21:03 79.3 °F 71.0 °F 29.90 in Calm     76 % 0.00 in
21:17 78.7 °F 71.0 °F 29.90 in Calm     77 % 0.00 in
21:32 78.1 °F 71.0 °F 29.92 in Calm     78 % 0.00 in
21:47 77.5 °F 71.0 °F 29.91 in Calm     79 % 0.00 in
22:02 77.0 °F 70.0 °F 29.91 in Calm     79 % 0.00 in
22:17 76.5 °F 70.0 °F 29.91 in Calm     81 % 0.00 in
22:32 76.1 °F 70.0 °F 29.92 in Calm     82 % 0.00 in
22:47 75.7 °F 70.0 °F 29.92 in Calm     83 % 0.00 in
23:03 75.3 °F 70.0 °F 29.92 in Calm     84 % 0.00 in
23:17 74.9 °F 70.0 °F 29.92 in Calm     84 % 0.00 in
23:32 74.6 °F 70.0 °F 29.91 in Calm     84 % 0.00 in
23:47 74.4 °F 69.0 °F 29.92 in ENE 1.0 mph 1.0 mph 84 % 0.00 in
Des Moines Weather and Climate
Compliments of Weather Underground - 3 mb

Script developed by  Jim McMurry - jmcmurry@mwt.net Adapted for the template by  Wim van der Kuil - Leuven-Template.eu

You find our weather info also at:

Weather Underground

Equipment we use:

Weather-station
Davis VP2 Plus

Weather-program
Davis Weatherlink.Com

Weather-server
iMac (Retina 4K, 21.5-inch, Late 2015)

Provider
Hostmonster.com

Davis VP2 Plus

Davis Weatherlink.Com

iMac (Retina 4K, 21.5-inch, Late 2015)

Hostmonster.com